createdAt,value
2023-05-04T00:01:55.000Z,3.3
2023-05-04T00:03:13.000Z,2.9
2023-05-04T00:04:39.000Z,2.8
2023-05-04T00:07:24.000Z,2.8
2023-05-04T00:10:09.000Z,3.4
2023-05-04T00:12:53.000Z,3.1
2023-05-04T00:15:38.000Z,3.2
2023-05-04T00:18:23.000Z,3
2023-05-04T00:21:07.000Z,3.3
2023-05-04T00:23:52.000Z,3.3
2023-05-04T00:26:36.000Z,3.4
2023-05-04T00:29:21.000Z,3.4
2023-05-04T00:30:39.000Z,3.3
2023-05-04T00:32:06.000Z,3.1
2023-05-04T00:34:50.000Z,3.5
2023-05-04T00:37:35.000Z,3.3
2023-05-04T00:40:20.000Z,3.3
2023-05-04T00:43:04.000Z,2.7
2023-05-04T00:46:05.000Z,2.6
2023-05-04T00:48:50.000Z,3
2023-05-04T00:51:35.000Z,3.6
2023-05-04T00:54:19.000Z,3.3
2023-05-04T00:57:04.000Z,3.7
2023-05-04T00:58:22.000Z,3.2
2023-05-04T00:59:49.000Z,3.5
2023-05-04T01:02:33.000Z,3.3
2023-05-04T01:05:18.000Z,3.1
2023-05-04T01:08:02.000Z,3.6
2023-05-04T01:10:47.000Z,3.6
2023-05-04T01:13:32.000Z,3.1
2023-05-04T01:16:16.000Z,3.1
2023-05-04T01:19:01.000Z,3.6
2023-05-04T01:21:46.000Z,3.2
2023-05-04T01:24:30.000Z,3.6
2023-05-04T01:25:48.000Z,3.3
2023-05-04T01:27:15.000Z,4
2023-05-04T01:30:00.000Z,4.1
2023-05-04T01:32:44.000Z,3.5
2023-05-04T01:35:29.000Z,3.3
2023-05-04T01:38:14.000Z,2.8
2023-05-04T01:40:58.000Z,2.8
2023-05-04T01:43:43.000Z,3
2023-05-04T01:46:27.000Z,2.8
2023-05-04T01:49:12.000Z,4.3
2023-05-04T01:51:57.000Z,3.5
2023-05-04T01:53:14.000Z,3.5
2023-05-04T01:54:41.000Z,3.5
2023-05-04T01:57:26.000Z,2.7
2023-05-04T02:00:11.000Z,4.2
2023-05-04T02:02:55.000Z,3.4
2023-05-04T02:05:40.000Z,3.1
2023-05-04T02:08:25.000Z,3.3
2023-05-04T02:11:09.000Z,3.7
2023-05-04T02:13:54.000Z,3.9
2023-05-04T02:16:38.000Z,3.5
2023-05-04T02:19:23.000Z,4.2
2023-05-04T02:20:41.000Z,3.1
2023-05-04T02:22:08.000Z,3.7
2023-05-04T02:24:52.000Z,3.3
2023-05-04T02:27:37.000Z,2.8
2023-05-04T02:30:22.000Z,3.1
2023-05-04T02:33:06.000Z,4.1
2023-05-04T02:35:51.000Z,3.6
2023-05-04T02:38:36.000Z,2.8
2023-05-04T02:41:20.000Z,3.8
2023-05-04T02:44:05.000Z,3.6
2023-05-04T02:46:50.000Z,4.2
2023-05-04T02:48:07.000Z,4.1
2023-05-04T02:49:34.000Z,3.3
2023-05-04T02:52:19.000Z,2.8
2023-05-04T02:55:03.000Z,3.8
2023-05-04T02:57:48.000Z,3.9
2023-05-04T03:00:33.000Z,3.4
2023-05-04T03:03:17.000Z,4.2
2023-05-04T03:06:02.000Z,3.3
2023-05-04T03:08:47.000Z,3.2
2023-05-04T03:11:31.000Z,3.2
2023-05-04T03:14:16.000Z,4.2
2023-05-04T03:15:34.000Z,4.4
2023-05-04T03:17:01.000Z,3
2023-05-04T03:19:45.000Z,3.3
2023-05-04T03:22:30.000Z,3.9
2023-05-04T03:25:15.000Z,3.5
2023-05-04T03:27:59.000Z,3.3
2023-05-04T03:30:44.000Z,3.2
2023-05-04T03:33:28.000Z,3.8
2023-05-04T03:36:13.000Z,4.2
2023-05-04T03:38:58.000Z,4.3
2023-05-04T03:41:42.000Z,2.7
2023-05-04T03:43:00.000Z,3.6
2023-05-04T03:44:27.000Z,4
2023-05-04T03:47:12.000Z,3.8
2023-05-04T03:49:56.000Z,4.3
2023-05-04T03:52:41.000Z,3.4
2023-05-04T03:55:26.000Z,3.4
2023-05-04T03:58:10.000Z,3.4
2023-05-04T04:00:55.000Z,3.4
2023-05-04T04:03:40.000Z,4.1
2023-05-04T04:06:24.000Z,3.8
2023-05-04T04:09:09.000Z,4.6
2023-05-04T04:10:27.000Z,3.7
2023-05-04T04:11:53.000Z,4.1
2023-05-04T04:14:38.000Z,5
2023-05-04T04:17:23.000Z,4.7
2023-05-04T04:20:07.000Z,4.2
2023-05-04T04:22:52.000Z,2.9
2023-05-04T04:25:37.000Z,4.1
2023-05-04T04:28:21.000Z,4.2
2023-05-04T04:31:06.000Z,4.1
2023-05-04T04:33:51.000Z,3.8
2023-05-04T04:36:35.000Z,3.7
2023-05-04T04:37:53.000Z,3.6
2023-05-04T04:39:20.000Z,4.9
2023-05-04T04:42:05.000Z,4.2
2023-05-04T04:44:49.000Z,3.9
2023-05-04T04:47:34.000Z,4.9
2023-05-04T04:50:18.000Z,4
2023-05-04T04:53:03.000Z,2.8
2023-05-04T04:55:48.000Z,3.6
2023-05-04T04:58:32.000Z,3.3
2023-05-04T05:01:17.000Z,3.9
2023-05-04T05:04:02.000Z,3.6
2023-05-04T05:05:20.000Z,4.5
2023-05-04T05:06:46.000Z,4.3
2023-05-04T05:09:31.000Z,3.8
2023-05-04T05:12:16.000Z,4.7
2023-05-04T05:15:00.000Z,4.3
2023-05-04T05:17:45.000Z,4.4
2023-05-04T05:20:30.000Z,4.1
2023-05-04T05:23:14.000Z,4
2023-05-04T05:25:59.000Z,4.8
2023-05-04T05:28:43.000Z,3.3
2023-05-04T05:31:28.000Z,3.9
2023-05-04T05:32:46.000Z,3
2023-05-04T05:34:13.000Z,4.9
2023-05-04T05:36:57.000Z,4.6
2023-05-04T05:39:42.000Z,4.5
2023-05-04T05:42:27.000Z,4.1
2023-05-04T05:45:11.000Z,4.3
2023-05-04T05:47:56.000Z,4.2
2023-05-04T05:50:41.000Z,3.9
2023-05-04T05:53:25.000Z,4.6
2023-05-04T05:56:10.000Z,4
2023-05-04T05:58:54.000Z,5.4
2023-05-04T06:00:12.000Z,5.4
2023-05-04T06:01:39.000Z,5.2
2023-05-04T06:04:24.000Z,4.8
2023-05-04T06:07:08.000Z,4.7
2023-05-04T06:09:53.000Z,5
2023-05-04T06:12:38.000Z,4.6
2023-05-04T06:15:22.000Z,4.3
2023-05-04T06:18:07.000Z,4.8
2023-05-04T06:20:52.000Z,5.2
2023-05-04T06:23:36.000Z,4.9
2023-05-04T06:26:21.000Z,5.2
2023-05-04T06:27:39.000Z,4.7
2023-05-04T06:29:06.000Z,5.1
2023-05-04T06:31:50.000Z,5.2
2023-05-04T06:34:35.000Z,4.9
2023-05-04T06:37:19.000Z,4.9
2023-05-04T06:40:04.000Z,4.6
2023-05-04T06:42:49.000Z,5.3
2023-05-04T06:48:18.000Z,4.6
2023-05-04T06:51:03.000Z,4.7
2023-05-04T06:53:47.000Z,5.1
2023-05-04T06:55:05.000Z,4.8
2023-05-04T06:56:32.000Z,4.4
2023-05-04T06:59:17.000Z,4.6
2023-05-04T07:02:01.000Z,4.8
2023-05-04T07:04:46.000Z,4.4
2023-05-04T07:07:30.000Z,4.7
2023-05-04T07:10:15.000Z,4.9
2023-05-04T07:13:00.000Z,4.6
2023-05-04T07:15:44.000Z,4.5
2023-05-04T07:18:29.000Z,4.9
2023-05-04T07:21:14.000Z,4.9
2023-05-04T07:22:32.000Z,5.2
2023-05-04T07:23:58.000Z,4.7
2023-05-04T07:26:43.000Z,4.6
2023-05-04T07:29:28.000Z,4.5
2023-05-04T07:32:12.000Z,5.1
2023-05-04T07:34:57.000Z,4.6
2023-05-04T07:37:42.000Z,4.4
2023-05-04T07:40:26.000Z,4.9
2023-05-04T07:43:11.000Z,4.5
2023-05-04T07:45:55.000Z,4.8
2023-05-04T07:48:40.000Z,4.5
2023-05-04T07:49:58.000Z,4.8
2023-05-04T07:51:25.000Z,4.1
2023-05-04T07:54:09.000Z,4.2
2023-05-04T07:56:54.000Z,4.3
2023-05-04T07:59:39.000Z,4.2
2023-05-04T08:02:23.000Z,4.2
2023-05-04T08:05:08.000Z,4.4
2023-05-04T08:07:53.000Z,4
2023-05-04T08:10:37.000Z,4.2
2023-05-04T08:13:22.000Z,4.6
2023-05-04T08:16:07.000Z,4.3
2023-05-04T08:17:25.000Z,4.4
2023-05-04T08:18:51.000Z,4.2
2023-05-04T08:21:36.000Z,3.8
2023-05-04T08:24:20.000Z,4
2023-05-04T08:27:05.000Z,4.3
2023-05-04T08:29:50.000Z,3.9
2023-05-04T08:32:34.000Z,4.1
2023-05-04T08:35:19.000Z,4.3
2023-05-04T08:38:04.000Z,4.5
2023-05-04T08:40:48.000Z,4.8
2023-05-04T08:43:33.000Z,5.4
2023-05-04T08:44:51.000Z,4.9
2023-05-04T08:46:18.000Z,5.3
2023-05-04T08:49:02.000Z,5.2
2023-05-04T08:51:47.000Z,5.5
2023-05-04T08:54:31.000Z,5.4
2023-05-04T08:57:16.000Z,6
2023-05-04T09:00:01.000Z,5.7
2023-05-04T09:02:45.000Z,5.8
2023-05-04T09:05:30.000Z,6.1
2023-05-04T09:08:15.000Z,5.7
2023-05-04T09:11:16.000Z,5.8
2023-05-04T09:12:33.000Z,5.8
2023-05-04T09:14:00.000Z,6.3
2023-05-04T09:16:45.000Z,5.7
2023-05-04T09:19:30.000Z,6.1
2023-05-04T09:22:14.000Z,5.9
2023-05-04T09:24:59.000Z,5.2
2023-05-04T09:27:44.000Z,5.4
2023-05-04T09:30:28.000Z,5.6
2023-05-04T09:33:13.000Z,5
2023-05-04T09:35:57.000Z,5.4
2023-05-04T09:38:42.000Z,5.7
2023-05-04T09:40:00.000Z,5.6
2023-05-04T09:41:27.000Z,5.1
2023-05-04T09:44:11.000Z,5.5
2023-05-04T09:46:56.000Z,5.3
2023-05-04T09:49:41.000Z,5.6
2023-05-04T09:52:25.000Z,5.5
2023-05-04T09:55:10.000Z,5.3
2023-05-04T09:57:55.000Z,4.4
2023-05-04T10:00:39.000Z,4.9
2023-05-04T10:06:09.000Z,5.3
2023-05-04T10:07:26.000Z,5.2
2023-05-04T10:08:53.000Z,5.2
2023-05-04T10:11:38.000Z,5.3
2023-05-04T10:14:22.000Z,5.4
2023-05-04T10:17:07.000Z,5.7
2023-05-04T10:19:52.000Z,5.8
2023-05-04T10:22:36.000Z,5.6
2023-05-04T10:25:21.000Z,5.8
2023-05-04T10:28:06.000Z,6
2023-05-04T10:30:50.000Z,5.5
2023-05-04T10:33:35.000Z,5.5
2023-05-04T10:34:53.000Z,5.2
2023-05-04T10:36:20.000Z,5.7
2023-05-04T10:39:04.000Z,5.6
2023-05-04T10:41:49.000Z,6.1
2023-05-04T10:44:33.000Z,5.2
2023-05-04T10:47:18.000Z,5.5
2023-05-04T10:50:03.000Z,5.1
2023-05-04T10:52:47.000Z,4.7
2023-05-04T10:55:32.000Z,5.2
2023-05-04T10:58:17.000Z,5.1
2023-05-04T11:02:19.000Z,5.4
2023-05-04T11:03:46.000Z,4.9
2023-05-04T11:06:31.000Z,4.7
2023-05-04T11:09:15.000Z,5
2023-05-04T11:12:00.403Z,5.3
2023-05-04T11:14:45.000Z,5.2
2023-05-04T11:17:29.000Z,5.1
2023-05-04T11:20:14.000Z,5.5
2023-05-04T11:22:58.000Z,5.1
2023-05-04T11:28:28.000Z,4.9
2023-05-04T11:29:46.000Z,4
2023-05-04T11:31:12.000Z,2.5
2023-05-04T11:33:57.000Z,3.4
2023-05-04T11:36:42.000Z,2.7
2023-05-04T11:39:26.000Z,3.1
2023-05-04T11:42:11.000Z,3.6
2023-05-04T11:44:56.000Z,3.6
2023-05-04T11:47:40.000Z,3.7
2023-05-04T11:50:41.000Z,3.8
2023-05-04T11:53:26.000Z,4
2023-05-04T11:56:11.000Z,3.7
2023-05-04T11:57:28.000Z,3.6
2023-05-04T11:58:55.000Z,3.3
2023-05-04T12:01:40.000Z,3.6
2023-05-04T12:04:24.000Z,3.2
2023-05-04T12:07:09.000Z,3.5
2023-05-04T12:09:54.000Z,3.8
2023-05-04T12:12:38.000Z,3.7
2023-05-04T12:15:23.000Z,3.8
2023-05-04T12:18:08.000Z,4.2
2023-05-04T12:20:52.000Z,3.6
2023-05-04T12:23:37.000Z,4
2023-05-04T12:24:55.000Z,3.4
2023-05-04T12:26:22.000Z,3.4
2023-05-04T12:29:06.000Z,3.4
2023-05-04T12:31:51.000Z,3.1
2023-05-04T12:34:36.000Z,3.6
2023-05-04T12:37:20.000Z,4.4
2023-05-04T12:40:05.000Z,4
2023-05-04T12:42:49.000Z,3.7
2023-05-04T12:45:34.000Z,3.9
2023-05-04T12:48:19.000Z,4
2023-05-04T12:51:03.000Z,4.4
2023-05-04T12:52:21.000Z,4.5
2023-05-04T12:53:48.000Z,4.7
2023-05-04T12:56:33.000Z,4
2023-05-04T12:59:17.000Z,3.7
2023-05-04T13:02:02.000Z,4.5
2023-05-04T13:07:31.000Z,4
2023-05-04T13:10:16.000Z,4.2
2023-05-04T13:13:00.000Z,3.5
2023-05-04T13:15:45.000Z,4.1
2023-05-04T13:18:30.000Z,3.9
2023-05-04T13:19:48.000Z,4.2
2023-05-04T13:21:14.000Z,3.7
2023-05-04T13:23:59.000Z,3.9
2023-05-04T13:26:44.000Z,3.9
2023-05-04T13:29:28.000Z,4.3
2023-05-04T13:34:58.000Z,3.9
2023-05-04T13:37:42.000Z,3.8
2023-05-04T13:40:27.000Z,4
2023-05-04T13:43:12.000Z,4.3
2023-05-04T13:45:56.000Z,4.4
2023-05-04T13:47:14.465Z,3.9
2023-05-04T13:48:41.000Z,4.6
2023-05-04T13:51:25.000Z,4.4
2023-05-04T13:54:10.000Z,4.1
2023-05-04T13:56:55.000Z,3.9
2023-05-04T13:59:39.000Z,4
2023-05-04T14:02:24.000Z,3.8
2023-05-04T14:05:09.000Z,4.3
2023-05-04T14:07:53.000Z,4.1
2023-05-04T14:10:38.000Z,4
2023-05-04T14:13:23.000Z,3.6
2023-05-04T14:14:40.000Z,3.6
2023-05-04T14:16:07.000Z,4
2023-05-04T14:18:52.000Z,3.9
2023-05-04T14:21:37.000Z,4.1
2023-05-04T14:24:21.000Z,4.2
2023-05-04T14:27:06.000Z,4.1
2023-05-04T14:29:50.000Z,4.4
2023-05-04T14:32:35.000Z,3.6
2023-05-04T14:35:20.000Z,3.7
2023-05-04T14:38:04.000Z,3.8
2023-05-04T14:42:07.000Z,3.8
2023-05-04T14:43:34.000Z,4
2023-05-04T14:46:18.000Z,3.5
2023-05-04T14:49:03.000Z,3.6
2023-05-04T14:51:48.000Z,3.6
2023-05-04T14:54:32.000Z,3.7
2023-05-04T14:57:17.000Z,3.4
2023-05-04T15:00:01.000Z,3.4
2023-05-04T15:02:46.000Z,3
2023-05-04T15:05:31.000Z,3
2023-05-04T15:08:15.000Z,3.6
2023-05-04T15:09:33.000Z,3.1
2023-05-04T15:11:00.000Z,3.4
2023-05-04T15:13:45.000Z,3.3
2023-05-04T15:16:29.000Z,3.1
2023-05-04T15:19:14.000Z,3.1
2023-05-04T15:21:59.000Z,3.2
2023-05-04T15:24:43.000Z,3.3
2023-05-04T15:27:28.000Z,3
2023-05-04T15:30:13.000Z,3.3
2023-05-04T15:32:57.000Z,2.8
2023-05-04T15:35:42.000Z,3.3
2023-05-04T15:37:00.000Z,3.4
2023-05-04T15:38:26.000Z,2.8
2023-05-04T15:41:11.000Z,3.2
2023-05-04T15:43:56.000Z,3.1
2023-05-04T15:46:57.000Z,2.8
2023-05-04T15:49:41.000Z,3
2023-05-04T15:52:26.000Z,2.7
2023-05-04T15:55:11.000Z,2.6
2023-05-04T15:57:55.000Z,2.8
2023-05-04T16:03:25.000Z,2.5
2023-05-04T16:06:09.000Z,2.3
2023-05-04T16:07:27.000Z,2.5
2023-05-04T16:08:54.000Z,2.7
2023-05-04T16:11:38.000Z,2.6
2023-05-04T16:14:23.000Z,2.4
2023-05-04T16:17:08.000Z,2.5
2023-05-04T16:19:52.000Z,2.7
2023-05-04T16:22:37.000Z,2.2
2023-05-04T16:25:22.000Z,2.4
2023-05-04T16:28:06.000Z,2.5
2023-05-04T16:30:51.000Z,2.5
2023-05-04T16:33:36.000Z,2.5
2023-05-04T16:34:53.000Z,2.1
2023-05-04T16:36:20.000Z,2.4
2023-05-04T16:39:05.000Z,2.4
2023-05-04T16:41:50.000Z,2.3
2023-05-04T16:44:34.000Z,2.3
2023-05-04T16:47:19.000Z,2.2
2023-05-04T16:50:03.000Z,2.4
2023-05-04T16:52:48.000Z,2.1
2023-05-04T16:55:33.000Z,2.2
2023-05-04T16:58:17.000Z,2.2
2023-05-04T17:01:02.000Z,2.3
2023-05-04T17:02:20.000Z,2.1
2023-05-04T17:03:47.000Z,2
2023-05-04T17:06:31.000Z,2.1
2023-05-04T17:09:16.000Z,1.9
2023-05-04T17:12:01.000Z,2
2023-05-04T17:14:45.000Z,2.4
2023-05-04T17:17:30.000Z,2.1
2023-05-04T17:20:15.000Z,2.3
2023-05-04T17:22:59.000Z,2.1
2023-05-04T17:25:44.000Z,2
2023-05-04T17:28:28.000Z,2.1
2023-05-04T17:29:46.000Z,2.1
2023-05-04T17:31:13.000Z,1.9
2023-05-04T17:33:58.000Z,2.3
2023-05-04T17:36:59.000Z,1.9
2023-05-04T17:39:43.000Z,2.2
2023-05-04T17:42:28.000Z,2.1
2023-05-04T17:45:13.000Z,2.2
2023-05-04T17:47:57.000Z,2
2023-05-04T17:50:42.000Z,2.4
2023-05-04T17:53:27.000Z,2.4
2023-05-04T17:56:11.000Z,2.3
2023-05-04T17:57:29.000Z,2.1
2023-05-04T17:58:56.000Z,2.4
2023-05-04T18:01:41.000Z,1.9
2023-05-04T18:04:25.000Z,2.1
2023-05-04T18:07:10.000Z,2
2023-05-04T18:09:54.000Z,2.2
2023-05-04T18:12:39.000Z,2
2023-05-04T18:15:24.000Z,2.1
2023-05-04T18:18:08.000Z,2.2
2023-05-04T18:20:53.000Z,2.2
2023-05-04T18:23:38.000Z,2
2023-05-04T18:24:55.000Z,2.2
2023-05-04T18:26:22.000Z,2.1
2023-05-04T18:29:07.000Z,2.2
2023-05-04T18:31:52.000Z,2.1
2023-05-04T18:34:36.000Z,2.2
2023-05-04T18:37:21.000Z,2.1
2023-05-04T18:40:05.000Z,2.3
2023-05-04T18:42:50.000Z,2.4
2023-05-04T18:45:35.000Z,2.4
2023-05-04T18:48:19.000Z,2.2
2023-05-04T18:51:04.000Z,2.3
2023-05-04T18:52:22.000Z,2.2
2023-05-04T18:53:49.000Z,2.3
2023-05-04T18:56:33.000Z,2.2
2023-05-04T18:59:18.000Z,2.4
2023-05-04T19:02:03.000Z,2.3
2023-05-04T19:04:47.000Z,2.3
2023-05-04T19:07:32.000Z,2.2
2023-05-04T19:10:17.000Z,2.3
2023-05-04T19:13:01.000Z,2.3
2023-05-04T19:15:46.000Z,2.4
2023-05-04T19:18:30.000Z,2
2023-05-04T19:19:48.000Z,2.3
2023-05-04T19:21:15.000Z,2.2
2023-05-04T19:24:00.000Z,2.1
2023-05-04T19:26:44.000Z,2.2
2023-05-04T19:29:29.000Z,2.4
2023-05-04T19:32:14.000Z,2.4
2023-05-04T19:34:58.000Z,2.4
2023-05-04T19:37:43.000Z,2.3
2023-05-04T19:40:28.000Z,2
2023-05-04T19:43:12.000Z,2.4
2023-05-04T19:45:57.000Z,2.5
2023-05-04T19:47:15.000Z,2.5
2023-05-04T19:48:41.000Z,2.5
2023-05-04T19:51:26.000Z,2.5
2023-05-04T19:54:11.000Z,2.3
2023-05-04T19:56:55.000Z,2.8
2023-05-04T19:59:40.000Z,2.5
2023-05-04T20:02:25.000Z,2.8
2023-05-04T20:05:09.000Z,2.4
2023-05-04T20:07:54.000Z,2.5
2023-05-04T20:10:39.000Z,2.7
2023-05-04T20:13:23.000Z,2.5
2023-05-04T20:14:41.000Z,2.8
2023-05-04T20:16:08.000Z,2.5
2023-05-04T20:18:53.000Z,3.1
2023-05-04T20:21:37.000Z,5.1
2023-05-04T20:24:22.000Z,3.9
2023-05-04T20:27:06.000Z,3.1
2023-05-04T20:29:51.000Z,3.1
2023-05-04T20:32:36.000Z,3
2023-05-04T20:35:20.000Z,2.8
2023-05-04T20:38:05.000Z,3.2
2023-05-04T20:40:50.000Z,3.1
2023-05-04T20:42:07.000Z,3.1
2023-05-04T20:43:34.000Z,3.3
2023-05-04T20:46:19.000Z,3.1
2023-05-04T20:49:04.000Z,3
2023-05-04T20:51:48.000Z,3
2023-05-04T20:54:33.000Z,3.7
2023-05-04T20:57:17.000Z,4.7
2023-05-04T21:00:02.000Z,5.2
2023-05-04T21:02:47.000Z,5.4
2023-05-04T21:05:31.000Z,3.6
2023-05-04T21:08:16.000Z,3.6
2023-05-04T21:09:34.000Z,2.9
2023-05-04T21:11:01.000Z,4
2023-05-04T21:13:45.000Z,3.8
2023-05-04T21:16:30.000Z,4.1
2023-05-04T21:19:15.000Z,3.8
2023-05-04T21:21:59.000Z,3.6
2023-05-04T21:24:44.000Z,3.9
2023-05-04T21:27:29.000Z,3.9
2023-05-04T21:30:13.000Z,3.9
2023-05-04T21:32:58.000Z,3.4
2023-05-04T21:35:42.000Z,4.2
2023-05-04T21:37:00.000Z,4.5
2023-05-04T21:38:27.000Z,3.6
2023-05-04T21:41:12.000Z,3.6
2023-05-04T21:43:56.000Z,4.1
2023-05-04T21:46:41.000Z,3.7
2023-05-04T21:49:26.000Z,4.2
2023-05-04T21:52:10.000Z,3.5
2023-05-04T21:54:55.000Z,3.8
2023-05-04T21:57:40.000Z,4.3
2023-05-04T22:00:24.000Z,3.8
2023-05-04T22:03:09.000Z,4.1
2023-05-04T22:04:27.000Z,3.9
2023-05-04T22:05:53.000Z,3.7
2023-05-04T22:08:38.000Z,4.2
2023-05-04T22:11:23.000Z,3.9
2023-05-04T22:14:07.000Z,3.8
2023-05-04T22:16:52.000Z,4
2023-05-04T22:19:37.000Z,4.1
2023-05-04T22:22:21.000Z,4.5
2023-05-04T22:25:06.000Z,4.5
2023-05-04T22:27:51.000Z,4
2023-05-04T22:30:35.000Z,3.9
2023-05-04T22:31:53.000Z,4
2023-05-04T22:33:20.000Z,4.2
2023-05-04T22:36:05.000Z,4.4
2023-05-04T22:38:49.000Z,4.7
2023-05-04T22:41:34.000Z,4.2
2023-05-04T22:44:18.000Z,4.3
2023-05-04T22:47:03.000Z,4.3
2023-05-04T22:49:48.000Z,4.3
2023-05-04T22:52:32.000Z,4.2
2023-05-04T22:55:17.000Z,4.4
2023-05-04T22:58:02.000Z,4.3
2023-05-04T22:59:20.000Z,4.9
2023-05-04T23:00:46.000Z,4.7
2023-05-04T23:03:31.000Z,4.2
2023-05-04T23:06:16.000Z,4.8
2023-05-04T23:09:00.000Z,5
2023-05-04T23:11:45.000Z,4.9
2023-05-04T23:14:29.000Z,5.2
2023-05-04T23:17:14.000Z,5.7
2023-05-04T23:19:59.000Z,5.4
2023-05-04T23:22:43.000Z,5.5
2023-05-04T23:25:28.000Z,5.7
2023-05-04T23:26:46.000Z,5.4
2023-05-04T23:28:13.000Z,4.7
2023-05-04T23:30:57.000Z,5.2
2023-05-04T23:33:42.000Z,5.2
2023-05-04T23:36:27.000Z,4.8
2023-05-04T23:39:11.000Z,5.4
2023-05-04T23:41:56.000Z,5.3
2023-05-04T23:44:41.000Z,5.8
2023-05-04T23:47:25.000Z,5.1
2023-05-04T23:50:10.000Z,5.8
2023-05-04T23:52:54.000Z,5.4
2023-05-04T23:54:12.000Z,6.3
2023-05-04T23:55:39.000Z,5.6
2023-05-04T23:58:24.000Z,4.8
